sensor_id;sensor_type;location;lat;lon;timestamp;pressure;altitude;pressure_sealevel;temperature;humidity
61205;BME280;47068;55.780;37.520;2024-02-16T00:00:39;101653.75;;;-7.40;95.57
61205;BME280;47068;55.780;37.520;2024-02-16T00:03:04;101665.81;;;-7.36;96.14
61205;BME280;47068;55.780;37.520;2024-02-16T00:05:29;101656.31;;;-7.37;96.05
61205;BME280;47068;55.780;37.520;2024-02-16T00:07:55;101655.47;;;-7.33;96.00
61205;BME280;47068;55.780;37.520;2024-02-16T00:10:20;101668.34;;;-7.23;96.07
61205;BME280;47068;55.780;37.520;2024-02-16T00:12:47;101664.03;;;-7.22;96.17
61205;BME280;47068;55.780;37.520;2024-02-16T00:15:12;101660.59;;;-7.21;96.24
61205;BME280;47068;55.780;37.520;2024-02-16T00:17:37;101665.78;;;-7.21;96.17
61205;BME280;47068;55.780;37.520;2024-02-16T00:20:03;101658.88;;;-7.19;96.39
61205;BME280;47068;55.780;37.520;2024-02-16T00:22:29;101654.53;;;-7.19;96.44
61205;BME280;47068;55.780;37.520;2024-02-16T00:24:55;101658.88;;;-7.19;96.03
61205;BME280;47068;55.780;37.520;2024-02-16T00:27:20;101650.25;;;-7.24;96.12
61205;BME280;47068;55.780;37.520;2024-02-16T00:29:45;101653.72;;;-7.27;96.10
61205;BME280;47068;55.780;37.520;2024-02-16T00:32:14;101645.09;;;-7.30;95.46
61205;BME280;47068;55.780;37.520;2024-02-16T00:34:40;101652.88;;;-7.36;95.62
61205;BME280;47068;55.780;37.520;2024-02-16T00:37:06;101650.28;;;-7.39;95.71
61205;BME280;47068;55.780;37.520;2024-02-16T00:39:38;101643.41;;;-7.37;95.51
61205;BME280;47068;55.780;37.520;2024-02-16T00:42:05;101639.97;;;-7.33;95.86
61205;BME280;47068;55.780;37.520;2024-02-16T00:44:30;101649.41;;;-7.28;95.63
61205;BME280;47068;55.780;37.520;2024-02-16T00:46:56;101635.59;;;-7.19;96.26
61205;BME280;47068;55.780;37.520;2024-02-16T00:49:21;101641.63;;;-7.23;96.03
61205;BME280;47068;55.780;37.520;2024-02-16T00:51:47;101636.47;;;-7.29;95.43
61205;BME280;47068;55.780;37.520;2024-02-16T00:54:12;101640.78;;;-7.28;95.76
61205;BME280;47068;55.780;37.520;2024-02-16T00:56:38;101644.25;;;-7.26;96.00
61205;BME280;47068;55.780;37.520;2024-02-16T00:59:04;101650.22;;;-7.18;96.16
61205;BME280;47068;55.780;37.520;2024-02-16T01:01:29;101651.94;;;-7.17;96.02
61205;BME280;47068;55.780;37.520;2024-02-16T01:03:54;101651.97;;;-7.20;95.73
61205;BME280;47068;55.780;37.520;2024-02-16T01:06:20;101645.06;;;-7.15;96.04
61205;BME280;47068;55.780;37.520;2024-02-16T01:08:45;101651.09;;;-7.14;95.97
61205;BME280;47068;55.780;37.520;2024-02-16T01:11:11;101645.06;;;-7.15;96.00
61205;BME280;47068;55.780;37.520;2024-02-16T01:13:37;101645.06;;;-7.18;95.89
61205;BME280;47068;55.780;37.520;2024-02-16T01:16:02;101645.06;;;-7.18;95.90
61205;BME280;47068;55.780;37.520;2024-02-16T01:18:28;101637.28;;;-7.09;95.78
61205;BME280;47068;55.780;37.520;2024-02-16T01:20:54;101644.13;;;-6.97;96.87
61205;BME280;47068;55.780;37.520;2024-02-16T01:23:20;101651.03;;;-7.01;96.01
61205;BME280;47068;55.780;37.520;2024-02-16T01:25:45;101647.63;;;-7.06;95.98
61205;BME280;47068;55.780;37.520;2024-02-16T01:28:11;101646.78;;;-7.14;95.87
61205;BME280;47068;55.780;37.520;2024-02-16T01:30:37;101645.06;;;-7.13;95.57
61205;BME280;47068;55.780;37.520;2024-02-16T01:33:03;101644.19;;;-7.16;95.92
61205;BME280;47068;55.780;37.520;2024-02-16T01:35:29;101643.31;;;-7.11;95.94
61205;BME280;47068;55.780;37.520;2024-02-16T01:37:54;101636.41;;;-7.11;95.94
61205;BME280;47068;55.780;37.520;2024-02-16T01:40:19;101632.09;;;-7.06;96.06
61205;BME280;47068;55.780;37.520;2024-02-16T01:42:46;101628.66;;;-7.06;95.76
61205;BME280;47068;55.780;37.520;2024-02-16T01:45:12;101620.03;;;-7.08;96.04
61205;BME280;47068;55.780;37.520;2024-02-16T01:47:37;101626.94;;;-7.06;95.93
61205;BME280;47068;55.780;37.520;2024-02-16T01:50:03;101618.28;;;-7.03;96.03
61205;BME280;47068;55.780;37.520;2024-02-16T01:52:30;101619.16;;;-7.06;96.17
61205;BME280;47068;55.780;37.520;2024-02-16T01:54:59;101624.34;;;-7.12;95.82
61205;BME280;47068;55.780;37.520;2024-02-16T01:57:24;101625.19;;;-7.07;95.98
61205;BME280;47068;55.780;37.520;2024-02-16T01:59:50;101619.13;;;-7.00;96.60
61205;BME280;47068;55.780;37.520;2024-02-16T02:02:15;101615.63;;;-6.90;96.73
61205;BME280;47068;55.780;37.520;2024-02-16T02:04:40;101623.38;;;-6.91;96.35
61205;BME280;47068;55.780;37.520;2024-02-16T02:07:15;101621.69;;;-6.94;96.42
61205;BME280;47068;55.780;37.520;2024-02-16T02:09:41;101620.81;;;-6.97;95.75
61205;BME280;47068;55.780;37.520;2024-02-16T02:12:07;101611.38;;;-7.01;96.01
61205;BME280;47068;55.780;37.520;2024-02-16T02:14:32;101621.72;;;-7.00;95.78
61205;BME280;47068;55.780;37.520;2024-02-16T02:16:58;101611.38;;;-7.00;96.08
61205;BME280;47068;55.780;37.520;2024-02-16T02:19:23;101619.97;;;-6.93;96.34
61205;BME280;47068;55.780;37.520;2024-02-16T02:21:48;101612.19;;;-6.92;96.44
61205;BME280;47068;55.780;37.520;2024-02-16T02:24:15;101611.31;;;-6.86;96.58
61205;BME280;47068;55.780;37.520;2024-02-16T02:26:41;101619.06;;;-6.85;96.98
61205;BME280;47068;55.780;37.520;2024-02-16T02:29:06;101613.88;;;-6.85;96.54
61205;BME280;47068;55.780;37.520;2024-02-16T02:31:32;101613.91;;;-6.88;96.18
61205;BME280;47068;55.780;37.520;2024-02-16T02:33:57;101614.75;;;-6.86;96.54
61205;BME280;47068;55.780;37.520;2024-02-16T02:36:22;101612.16;;;-6.89;96.25
61205;BME280;47068;55.780;37.520;2024-02-16T02:38:48;101605.31;;;-6.93;96.06
61205;BME280;47068;55.780;37.520;2024-02-16T02:41:13;101613.06;;;-6.96;96.04
61205;BME280;47068;55.780;37.520;2024-02-16T02:43:41;101619.09;;;-6.95;96.00
61205;BME280;47068;55.780;37.520;2024-02-16T02:46:07;101618.25;;;-6.94;96.22
61205;BME280;47068;55.780;37.520;2024-02-16T02:48:32;101620.84;;;-6.99;96.32
61205;BME280;47068;55.780;37.520;2024-02-16T02:50:57;101610.50;;;-7.03;95.74
61205;BME280;47068;55.780;37.520;2024-02-16T02:53:26;101619.16;;;-7.06;95.84
61205;BME280;47068;55.780;37.520;2024-02-16T02:55:51;101631.25;;;-7.12;95.68
61205;BME280;47068;55.780;37.520;2024-02-16T02:58:17;101639.84;;;-7.12;95.76
61205;BME280;47068;55.780;37.520;2024-02-16T03:00:43;101633.78;;;-7.02;95.87
61205;BME280;47068;55.780;37.520;2024-02-16T03:03:09;101632.94;;;-7.01;95.85
61205;BME280;47068;55.780;37.520;2024-02-16T03:05:34;101607.97;;;-7.14;95.99
61205;BME280;47068;55.780;37.520;2024-02-16T03:08:00;101635.50;;;-6.95;96.34
61205;BME280;47068;55.780;37.520;2024-02-16T03:10:26;101633.72;;;-6.88;96.16
61205;BME280;47068;55.780;37.520;2024-02-16T03:12:52;101644.09;;;-6.91;96.26
61205;BME280;47068;55.780;37.520;2024-02-16T03:15:17;101638.06;;;-6.96;95.85
61205;BME280;47068;55.780;37.520;2024-02-16T03:17:43;101641.53;;;-6.93;95.72
61205;BME280;47068;55.780;37.520;2024-02-16T03:20:09;101650.13;;;-6.89;96.11
61205;BME280;47068;55.780;37.520;2024-02-16T03:22:34;101641.47;;;-6.81;96.38
61205;BME280;47068;55.780;37.520;2024-02-16T03:24:59;101645.78;;;-6.84;96.41
61205;BME280;47068;55.780;37.520;2024-02-16T03:27:25;101645.78;;;-6.80;96.23
61205;BME280;47068;55.780;37.520;2024-02-16T03:29:50;101651.78;;;-6.71;96.80
61205;BME280;47068;55.780;37.520;2024-02-16T03:32:15;101660.38;;;-6.65;96.91
61205;BME280;47068;55.780;37.520;2024-02-16T03:34:42;101654.28;;;-6.59;97.21
61205;BME280;47068;55.780;37.520;2024-02-16T03:37:07;101660.34;;;-6.60;96.90
61205;BME280;47068;55.780;37.520;2024-02-16T03:39:33;101659.50;;;-6.65;96.43
61205;BME280;47068;55.780;37.520;2024-02-16T03:41:58;101661.28;;;-6.72;96.14
61205;BME280;47068;55.780;37.520;2024-02-16T03:44:24;101653.50;;;-6.72;96.61
61205;BME280;47068;55.780;37.520;2024-02-16T03:46:50;101647.47;;;-6.74;96.19
61205;BME280;47068;55.780;37.520;2024-02-16T03:49:15;101637.13;;;-6.74;96.06
61205;BME280;47068;55.780;37.520;2024-02-16T03:51:40;101637.94;;;-6.67;96.53
61205;BME280;47068;55.780;37.520;2024-02-16T03:54:06;101643.06;;;-6.61;96.61
61205;BME280;47068;55.780;37.520;2024-02-16T03:56:32;101640.53;;;-6.67;96.59
61205;BME280;47068;55.780;37.520;2024-02-16T03:58:57;101644.00;;;-6.73;96.21
61205;BME280;47068;55.780;37.520;2024-02-16T04:01:23;101636.28;;;-6.79;96.39
61205;BME280;47068;55.780;37.520;2024-02-16T04:03:49;101634.56;;;-6.82;96.17
61205;BME280;47068;55.780;37.520;2024-02-16T04:06:14;101627.66;;;-6.84;95.80
61205;BME280;47068;55.780;37.520;2024-02-16T04:08:39;101626.81;;;-6.88;95.98
61205;BME280;47068;55.780;37.520;2024-02-16T04:11:05;101636.31;;;-6.90;95.72
61205;BME280;47068;55.780;37.520;2024-02-16T04:13:30;101632.00;;;-6.89;96.06
61205;BME280;47068;55.780;37.520;2024-02-16T04:15:59;101621.66;;;-6.85;95.83
61205;BME280;47068;55.780;37.520;2024-02-16T04:18:26;101620.75;;;-6.84;96.30
61205;BME280;47068;55.780;37.520;2024-02-16T04:20:52;101619.94;;;-6.90;95.77
61205;BME280;47068;55.780;37.520;2024-02-16T04:23:17;101622.56;;;-6.92;95.74
61205;BME280;47068;55.780;37.520;2024-02-16T04:25:42;101619.97;;;-6.96;95.82
61205;BME280;47068;55.780;37.520;2024-02-16T04:28:08;101616.50;;;-6.94;96.16
61205;BME280;47068;55.780;37.520;2024-02-16T04:30:34;101603.56;;;-6.94;95.79
61205;BME280;47068;55.780;37.520;2024-02-16T04:33:00;101627.72;;;-6.92;95.87
61205;BME280;47068;55.780;37.520;2024-02-16T04:35:26;101609.63;;;-6.98;95.53
61205;BME280;47068;55.780;37.520;2024-02-16T04:37:52;101616.50;;;-6.97;95.72
61205;BME280;47068;55.780;37.520;2024-02-16T04:40:17;101619.13;;;-7.03;95.25
61205;BME280;47068;55.780;37.520;2024-02-16T04:42:43;101629.50;;;-7.06;95.47
61205;BME280;47068;55.780;37.520;2024-02-16T04:45:14;101635.53;;;-7.10;95.06
61205;BME280;47068;55.780;37.520;2024-02-16T04:47:39;101628.69;;;-7.12;95.40
61205;BME280;47068;55.780;37.520;2024-02-16T04:50:05;101615.75;;;-7.16;95.23
61205;BME280;47068;55.780;37.520;2024-02-16T04:52:35;101620.06;;;-7.16;95.38
61205;BME280;47068;55.780;37.520;2024-02-16T04:55:01;101623.50;;;-7.12;95.72
61205;BME280;47068;55.780;37.520;2024-02-16T04:57:26;101617.44;;;-7.07;95.41
61205;BME280;47068;55.780;37.520;2024-02-16T04:59:54;101612.25;;;-7.10;95.53
61205;BME280;47068;55.780;37.520;2024-02-16T05:02:20;101619.16;;;-7.12;95.39
61205;BME280;47068;55.780;37.520;2024-02-16T05:04:45;101609.69;;;-7.11;95.57
61205;BME280;47068;55.780;37.520;2024-02-16T05:07:10;101612.25;;;-7.10;95.62
61205;BME280;47068;55.780;37.520;2024-02-16T05:09:36;101614.84;;;-7.08;95.60
61205;BME280;47068;55.780;37.520;2024-02-16T05:12:02;101617.47;;;-7.13;95.00
61205;BME280;47068;55.780;37.520;2024-02-16T05:14:27;101624.34;;;-7.09;95.60
61205;BME280;47068;55.780;37.520;2024-02-16T05:16:53;101608.81;;;-7.09;95.42
61205;BME280;47068;55.780;37.520;2024-02-16T05:19:18;101611.44;;;-7.15;95.29
61205;BME280;47068;55.780;37.520;2024-02-16T05:21:44;101613.19;;;-7.20;95.07
61205;BME280;47068;55.780;37.520;2024-02-16T05:24:09;101612.31;;;-7.25;94.99
61205;BME280;47068;55.780;37.520;2024-02-16T05:26:36;101625.28;;;-7.27;95.13
61205;BME280;47068;55.780;37.520;2024-02-16T05:29:01;101627.84;;;-7.31;95.02
61205;BME280;47068;55.780;37.520;2024-02-16T05:31:27;101633.03;;;-7.31;94.41
61205;BME280;47068;55.780;37.520;2024-02-16T05:33:52;101641.66;;;-7.35;94.67
61205;BME280;47068;55.780;37.520;2024-02-16T05:38:45;101638.22;;;-7.34;94.71
61205;BME280;47068;55.780;37.520;2024-02-16T05:41:10;101652.84;;;-7.30;94.96
61205;BME280;47068;55.780;37.520;2024-02-16T05:43:36;101643.38;;;-7.28;94.95
61205;BME280;47068;55.780;37.520;2024-02-16T05:46:03;101658.88;;;-7.19;95.28
61205;BME280;47068;55.780;37.520;2024-02-16T05:48:28;101661.47;;;-7.19;95.33
61205;BME280;47068;55.780;37.520;2024-02-16T05:51:01;101666.63;;;-7.19;95.08
61205;BME280;47068;55.780;37.520;2024-02-16T05:53:27;101664.03;;;-7.16;95.35
61205;BME280;47068;55.780;37.520;2024-02-16T05:55:53;101663.16;;;-7.06;95.53
61205;BME280;47068;55.780;37.520;2024-02-16T05:58:18;101670.88;;;-7.01;95.54
61205;BME280;47068;55.780;37.520;2024-02-16T06:00:44;101660.53;;;-7.00;95.58
61205;BME280;47068;55.780;37.520;2024-02-16T06:03:09;101664.81;;;-6.94;95.75
61205;BME280;47068;55.780;37.520;2024-02-16T06:05:34;101667.38;;;-6.87;96.04
61205;BME280;47068;55.780;37.520;2024-02-16T06:08:00;101660.41;;;-6.76;96.23
61205;BME280;47068;55.780;37.520;2024-02-16T06:10:25;101653.50;;;-6.72;96.26
61205;BME280;47068;55.780;37.520;2024-02-16T06:12:51;101654.38;;;-6.78;95.74
61205;BME280;47068;55.780;37.520;2024-02-16T06:15:16;101653.47;;;-6.70;95.82
61205;BME280;47068;55.780;37.520;2024-02-16T06:17:41;101662.94;;;-6.60;96.18
61205;BME280;47068;55.780;37.520;2024-02-16T06:20:07;101660.34;;;-6.63;95.97
61205;BME280;47068;55.780;37.520;2024-02-16T06:22:35;101667.28;;;-6.65;95.87
61205;BME280;47068;55.780;37.520;2024-02-16T06:25:01;101658.59;;;-6.60;95.93
61205;BME280;47068;55.780;37.520;2024-02-16T06:27:26;101659.44;;;-6.56;95.88
61205;BME280;47068;55.780;37.520;2024-02-16T06:29:51;101661.16;;;-6.51;96.00
61205;BME280;47068;55.780;37.520;2024-02-16T06:32:17;101657.66;;;-6.48;96.13
61205;BME280;47068;55.780;37.520;2024-02-16T06:34:42;101668.03;;;-6.48;96.07
61205;BME280;47068;55.780;37.520;2024-02-16T06:37:08;101659.34;;;-6.38;96.15
61205;BME280;47068;55.780;37.520;2024-02-16T06:39:33;101664.53;;;-6.37;95.95
61205;BME280;47068;55.780;37.520;2024-02-16T06:41:59;101658.44;;;-6.34;96.63
61205;BME280;47068;55.780;37.520;2024-02-16T06:44:25;101661.91;;;-6.32;96.36
61205;BME280;47068;55.780;37.520;2024-02-16T06:46:51;101654.97;;;-6.30;95.96
61205;BME280;47068;55.780;37.520;2024-02-16T06:49:16;101659.25;;;-6.27;96.15
61205;BME280;47068;55.780;37.520;2024-02-16T06:51:42;101660.88;;;-6.10;96.46
61205;BME280;47068;55.780;37.520;2024-02-16T06:54:07;101660.75;;;-5.94;97.14
61205;BME280;47068;55.780;37.520;2024-02-16T06:56:32;101657.16;;;-5.81;97.23
61205;BME280;47068;55.780;37.520;2024-02-16T06:58:58;101663.19;;;-5.79;96.85
61205;BME280;47068;55.780;37.520;2024-02-16T07:01:23;101651.88;;;-5.72;97.05
61205;BME280;47068;55.780;37.520;2024-02-16T07:03:49;101647.53;;;-5.67;97.09
61205;BME280;47068;55.780;37.520;2024-02-16T07:06:15;101649.28;;;-5.69;97.09
61205;BME280;47068;55.780;37.520;2024-02-16T07:08:41;101652.72;;;-5.69;96.80
61205;BME280;47068;55.780;37.520;2024-02-16T07:11:06;101651.78;;;-5.60;96.95
61205;BME280;47068;55.780;37.520;2024-02-16T07:13:32;101649.22;;;-5.66;96.39
61205;BME280;47068;55.780;37.520;2024-02-16T07:15:58;101640.56;;;-5.62;96.48
61205;BME280;47068;55.780;37.520;2024-02-16T07:18:24;101638.81;;;-5.60;96.42
61205;BME280;47068;55.780;37.520;2024-02-16T07:20:49;101642.28;;;-5.61;95.78
61205;BME280;47068;55.780;37.520;2024-02-16T07:23:14;101643.16;;;-5.62;95.60
61205;BME280;47068;55.780;37.520;2024-02-16T07:25:40;101639.63;;;-5.57;96.56
61205;BME280;47068;55.780;37.520;2024-02-16T07:28:06;101648.22;;;-5.50;96.26
61205;BME280;47068;55.780;37.520;2024-02-16T07:30:31;101650.72;;;-5.41;96.89
61205;BME280;47068;55.780;37.520;2024-02-16T07:32:57;101642.09;;;-5.46;96.14
61205;BME280;47068;55.780;37.520;2024-02-16T07:35:23;101646.59;;;-5.60;96.35
61205;BME280;47068;55.780;37.520;2024-02-16T07:37:49;101655.31;;;-5.69;95.68
61205;BME280;47068;55.780;37.520;2024-02-16T07:40:17;101643.28;;;-5.74;96.57
61205;BME280;47068;55.780;37.520;2024-02-16T07:42:42;101664.03;;;-5.77;95.57
61205;BME280;47068;55.780;37.520;2024-02-16T07:45:09;101658.03;;;-5.82;95.76
61205;BME280;47068;55.780;37.520;2024-02-16T07:47:37;101653.66;;;-5.77;95.68
61205;BME280;47068;55.780;37.520;2024-02-16T07:50:02;101648.38;;;-5.67;95.89
61205;BME280;47068;55.780;37.520;2024-02-16T07:52:28;101653.53;;;-5.61;96.40
61205;BME280;47068;55.780;37.520;2024-02-16T07:54:54;101665.69;;;-5.67;96.28
61205;BME280;47068;55.780;37.520;2024-02-16T07:57:19;101658.84;;;-5.74;95.74
61205;BME280;47068;55.780;37.520;2024-02-16T07:59:44;101660.56;;;-5.75;95.80
61205;BME280;47068;55.780;37.520;2024-02-16T08:02:10;101677.06;;;-5.86;96.09
61205;BME280;47068;55.780;37.520;2024-02-16T08:04:40;101683.09;;;-5.83;96.63
61205;BME280;47068;55.780;37.520;2024-02-16T08:07:06;101680.34;;;-5.66;96.88
61205;BME280;47068;55.780;37.520;2024-02-16T08:09:31;101665.63;;;-5.64;97.09
61205;BME280;47068;55.780;37.520;2024-02-16T08:11:56;101670.88;;;-5.67;96.70
61205;BME280;47068;55.780;37.520;2024-02-16T08:14:22;101675.22;;;-5.72;96.77
61205;BME280;47068;55.780;37.520;2024-02-16T08:16:47;101679.59;;;-5.77;96.00
61205;BME280;47068;55.780;37.520;2024-02-16T08:19:13;101675.31;;;-5.83;96.17
61205;BME280;47068;55.780;37.520;2024-02-16T08:21:39;101672.69;;;-5.78;96.29
61205;BME280;47068;55.780;37.520;2024-02-16T08:24:05;101670.88;;;-5.69;96.61
61205;BME280;47068;55.780;37.520;2024-02-16T08:26:30;101676.81;;;-5.56;96.73
61205;BME280;47068;55.780;37.520;2024-02-16T08:28:55;101667.25;;;-5.52;96.79
61205;BME280;47068;55.780;37.520;2024-02-16T08:31:21;101655.13;;;-5.50;96.43
61205;BME280;47068;55.780;37.520;2024-02-16T08:33:47;101656.84;;;-5.49;96.28
61205;BME280;47068;55.780;37.520;2024-02-16T08:36:12;101663.78;;;-5.50;95.95
61205;BME280;47068;55.780;37.520;2024-02-16T08:38:38;101665.50;;;-5.50;95.96
61205;BME280;47068;55.780;37.520;2024-02-16T08:41:03;101663.69;;;-5.41;95.96
61205;BME280;47068;55.780;37.520;2024-02-16T08:43:28;101657.50;;;-5.29;96.45
61205;BME280;47068;55.780;37.520;2024-02-16T08:45:54;101662.69;;;-5.28;96.60
61205;BME280;47068;55.780;37.520;2024-02-16T08:48:19;101669.63;;;-5.28;97.12
61205;BME280;47068;55.780;37.520;2024-02-16T08:50:44;101673.00;;;-5.25;96.50
61205;BME280;47068;55.780;37.520;2024-02-16T08:53:10;101676.41;;;-5.17;97.59
61205;BME280;47068;55.780;37.520;2024-02-16T08:55:35;101671.06;;;-5.04;97.40
61205;BME280;47068;55.780;37.520;2024-02-16T08:58:01;101671.91;;;-5.04;96.96
61205;BME280;47068;55.780;37.520;2024-02-16T09:00:26;101673.78;;;-5.13;97.19
61205;BME280;47068;55.780;37.520;2024-02-16T09:02:53;101674.66;;;-5.14;97.04
61205;BME280;47068;55.780;37.520;2024-02-16T09:05:19;101680.63;;;-5.05;97.24
61205;BME280;47068;55.780;37.520;2024-02-16T09:07:44;101683.09;;;-4.97;97.22
61205;BME280;47068;55.780;37.520;2024-02-16T09:10:10;101686.47;;;-4.89;97.90
61205;BME280;47068;55.780;37.520;2024-02-16T09:12:35;101681.13;;;-4.77;97.45
61205;BME280;47068;55.780;37.520;2024-02-16T09:15:00;101680.22;;;-4.71;97.70
61205;BME280;47068;55.780;37.520;2024-02-16T09:17:26;101675.13;;;-4.81;97.34
61205;BME280;47068;55.780;37.520;2024-02-16T09:19:51;101671.81;;;-4.95;96.57
61205;BME280;47068;55.780;37.520;2024-02-16T09:22:17;101663.19;;;-4.95;96.35
61205;BME280;47068;55.780;37.520;2024-02-16T09:24:42;101666.69;;;-4.99;95.74
61205;BME280;47068;55.780;37.520;2024-02-16T09:27:11;101664.13;;;-5.02;96.02
61205;BME280;47068;55.780;37.520;2024-02-16T09:29:37;101650.19;;;-4.92;96.54
61205;BME280;47068;55.780;37.520;2024-02-16T09:32:03;101650.88;;;-4.81;96.47
61205;BME280;47068;55.780;37.520;2024-02-16T09:34:28;101648.97;;;-4.65;96.65
61205;BME280;47068;55.780;37.520;2024-02-16T09:36:54;101646.16;;;-4.52;97.57
61205;BME280;47068;55.780;37.520;2024-02-16T09:39:19;101656.50;;;-4.47;96.54
61205;BME280;47068;55.780;37.520;2024-02-16T09:41:44;101649.34;;;-4.33;97.34
61205;BME280;47068;55.780;37.520;2024-02-16T09:44:14;101642.13;;;-4.14;98.28
61205;BME280;47068;55.780;37.520;2024-02-16T09:46:40;101637.78;;;-4.12;97.36
61205;BME280;47068;55.780;37.520;2024-02-16T09:49:05;101632.50;;;-4.08;97.42
61205;BME280;47068;55.780;37.520;2024-02-16T09:51:31;101628.31;;;-4.16;96.61
61205;BME280;47068;55.780;37.520;2024-02-16T09:53:56;101629.50;;;-4.37;95.66
61205;BME280;47068;55.780;37.520;2024-02-16T09:56:22;101622.03;;;-4.60;95.07
61205;BME280;47068;55.780;37.520;2024-02-16T09:58:50;101607.44;;;-4.70;95.21
61205;BME280;47068;55.780;37.520;2024-02-16T10:01:19;101614.34;;;-4.69;95.21
61205;BME280;47068;55.780;37.520;2024-02-16T10:03:45;101623.84;;;-4.65;96.14
61205;BME280;47068;55.780;37.520;2024-02-16T10:06:11;101610.94;;;-4.71;95.47
61205;BME280;47068;55.780;37.520;2024-02-16T10:08:52;101618.78;;;-4.77;95.83
61205;BME280;47068;55.780;37.520;2024-02-16T10:11:19;101611.06;;;-4.82;95.44
61205;BME280;47068;55.780;37.520;2024-02-16T10:13:58;101617.22;;;-4.87;95.34
61205;BME280;47068;55.780;37.520;2024-02-16T10:16:23;101622.44;;;-4.90;95.84
61205;BME280;47068;55.780;37.520;2024-02-16T10:18:49;101610.34;;;-4.91;95.83
61205;BME280;47068;55.780;37.520;2024-02-16T10:21:23;101621.72;;;-5.00;94.12
61205;BME280;47068;55.780;37.520;2024-02-16T10:26:27;101611.38;;;-5.04;95.04
61205;BME280;47068;55.780;37.520;2024-02-16T10:28:54;101610.50;;;-5.03;95.04
61205;BME280;47068;55.780;37.520;2024-02-16T10:31:22;101613.81;;;-4.92;96.29
61205;BME280;47068;55.780;37.520;2024-02-16T10:33:54;101612.97;;;-4.93;95.89
61205;BME280;47068;55.780;37.520;2024-02-16T10:36:19;101609.50;;;-4.93;95.31
61205;BME280;47068;55.780;37.520;2024-02-16T10:38:45;101610.41;;;-4.96;95.11
61205;BME280;47068;55.780;37.520;2024-02-16T10:41:12;101603.53;;;-5.00;94.97
61205;BME280;47068;55.780;37.520;2024-02-16T10:43:38;101602.56;;;-4.91;95.54
61205;BME280;47068;55.780;37.520;2024-02-16T10:46:03;101606.81;;;-4.84;95.79
61205;BME280;47068;55.780;37.520;2024-02-16T10:48:29;101611.00;;;-4.76;96.67
61205;BME280;47068;55.780;37.520;2024-02-16T10:50:54;101607.44;;;-4.68;96.90
61205;BME280;47068;55.780;37.520;2024-02-16T10:53:24;101608.16;;;-4.59;97.23
61205;BME280;47068;55.780;37.520;2024-02-16T10:55:51;101615.00;;;-4.52;97.43
61205;BME280;47068;55.780;37.520;2024-02-16T10:58:17;101618.47;;;-4.53;96.39
61205;BME280;47068;55.780;37.520;2024-02-16T11:00:52;101614.91;;;-4.46;97.15
61205;BME280;47068;55.780;37.520;2024-02-16T11:03:18;101612.44;;;-4.56;96.86
61205;BME280;47068;55.780;37.520;2024-02-16T11:05:48;101617.72;;;-4.61;96.92
61205;BME280;47068;55.780;37.520;2024-02-16T11:08:14;101615.13;;;-4.62;96.78
61205;BME280;47068;55.780;37.520;2024-02-16T11:10:40;101616.16;;;-4.72;95.31
61205;BME280;47068;55.780;37.520;2024-02-16T11:13:05;101612.78;;;-4.78;95.61
61205;BME280;47068;55.780;37.520;2024-02-16T11:15:32;101612.59;;;-4.67;95.78
61205;BME280;47068;55.780;37.520;2024-02-16T11:17:59;101609.91;;;-4.61;95.67
61205;BME280;47068;55.780;37.520;2024-02-16T11:20:25;101606.34;;;-4.52;95.96
61205;BME280;47068;55.780;37.520;2024-02-16T11:22:51;101614.00;;;-4.43;96.95
61205;BME280;47068;55.780;37.520;2024-02-16T11:25:17;101611.31;;;-4.37;96.47
61205;BME280;47068;55.780;37.520;2024-02-16T11:27:43;101612.97;;;-4.31;96.92
61205;BME280;47068;55.780;37.520;2024-02-16T11:30:11;101618.09;;;-4.28;97.07
61205;BME280;47068;55.780;37.520;2024-02-16T11:32:37;101618.03;;;-4.24;97.02
61205;BME280;47068;55.780;37.520;2024-02-16T11:35:06;101607.75;;;-4.31;96.68
61205;BME280;47068;55.780;37.520;2024-02-16T11:37:32;101597.50;;;-4.41;94.83
61205;BME280;47068;55.780;37.520;2024-02-16T11:39:57;101598.25;;;-4.32;96.12
61205;BME280;47068;55.780;37.520;2024-02-16T11:42:23;101595.41;;;-4.17;97.06
61205;BME280;47068;55.780;37.520;2024-02-16T11:44:54;101599.78;;;-4.21;96.63
61205;BME280;47068;55.780;37.520;2024-02-16T11:47:24;101591.97;;;-4.19;96.58
61205;BME280;47068;55.780;37.520;2024-02-16T11:52:30;101598.91;;;-4.21;95.88
61205;BME280;47068;55.780;37.520;2024-02-16T11:54:56;101597.25;;;-4.25;95.71
61205;BME280;47068;55.780;37.520;2024-02-16T11:57:26;101595.66;;;-4.32;95.54
61205;BME280;47068;55.780;37.520;2024-02-16T11:59:52;101607.00;;;-4.40;95.41
61205;BME280;47068;55.780;37.520;2024-02-16T12:02:17;101605.44;;;-4.50;95.09
61205;BME280;47068;55.780;37.520;2024-02-16T12:04:57;101612.13;;;-4.35;96.15
61205;BME280;47068;55.780;37.520;2024-02-16T12:07:22;101622.47;;;-4.30;95.63
61205;BME280;47068;55.780;37.520;2024-02-16T12:09:56;101610.56;;;-4.44;95.33
61205;BME280;47068;55.780;37.520;2024-02-16T12:12:22;101606.25;;;-4.48;95.40
61205;BME280;47068;55.780;37.520;2024-02-16T12:14:47;101610.56;;;-4.44;95.29
61205;BME280;47068;55.780;37.520;2024-02-16T12:17:14;101612.34;;;-4.49;95.40
61205;BME280;47068;55.780;37.520;2024-02-16T12:19:43;101613.06;;;-4.39;95.90
61205;BME280;47068;55.780;37.520;2024-02-16T12:22:10;101618.25;;;-4.38;96.63
61205;BME280;47068;55.780;37.520;2024-02-16T12:24:35;101611.47;;;-4.48;95.83
61205;BME280;47068;55.780;37.520;2024-02-16T12:27:01;101608.06;;;-4.51;95.50
61205;BME280;47068;55.780;37.520;2024-02-16T12:29:26;101613.25;;;-4.50;95.80
61205;BME280;47068;55.780;37.520;2024-02-16T12:31:51;101606.31;;;-4.51;95.82
61205;BME280;47068;55.780;37.520;2024-02-16T12:34:17;101614.22;;;-4.57;95.81
61205;BME280;47068;55.780;37.520;2024-02-16T12:36:42;101610.69;;;-4.53;95.70
61205;BME280;47068;55.780;37.520;2024-02-16T12:39:07;101609.91;;;-4.58;96.13
61205;BME280;47068;55.780;37.520;2024-02-16T12:41:36;101610.84;;;-4.63;95.16